Time;durP1;ratioP1;P1;durP2;ratioP2;P2;SDS_P1;SDS_P2;PMS_P1;PMS_P2;Temp;Humidity;BMP_temperature;BMP_pressure;BME280_temperature;BME280_humidity;BME280_pressure;Samples;Min_cycle;Max_cycle;Signal;HPM_P1;HPM_P2
2023/06/11 00:01:40;;;;;;;5.82;1.80;;;;;;;;;;4994844;28;20120;-84
2023/06/11 00:04:37;;;;;;;7.30;1.60;;;;;;;;;;4994645;28;20120;-83
2023/06/11 00:07:40;;;;;;;4.60;1.40;;;;;;;;;;4993719;28;20058;-82
2023/06/11 00:10:12;;;;;;;4.38;1.42;;;;;;;;;;4982844;28;20077;-82
2023/06/11 00:12:39;;;;;;;3.10;1.23;;;;;;;;;;4995734;28;20128;-83
2023/06/11 00:15:22;;;;;;;3.38;1.13;;;;;;;;;;5021799;28;20041;-84
2023/06/11 00:17:51;;;;;;;7.50;1.77;;;;;;;;;;5009307;28;20042;-84
2023/06/11 00:20:46;;;;;;;5.38;1.20;;;;;;;;;;4994391;28;20103;-83
2023/06/11 00:23:51;;;;;;;8.85;1.60;;;;;;;;;;4994780;28;20046;-83
2023/06/11 00:27:39;;;;;;;3.95;1.35;;;;;;;;;;4994811;28;20076;-83
2023/06/11 00:31:28;;;;;;;4.53;1.30;;;;;;;;;;4995949;28;20358;-82
2023/06/11 00:33:59;;;;;;;3.00;1.38;;;;;;;;;;4992603;28;20054;-84
2023/06/11 00:36:27;;;;;;;5.70;1.42;;;;;;;;;;5002566;28;20034;-83
2023/06/11 00:38:56;;;;;;;4.53;1.70;;;;;;;;;;4995995;28;20046;-83
2023/06/11 00:41:31;;;;;;;5.10;1.63;;;;;;;;;;5008703;28;20041;-83
2023/06/11 00:44:00;;;;;;;3.97;1.40;;;;;;;;;;4986831;28;20057;-83
2023/06/11 00:46:27;;;;;;;3.20;1.45;;;;;;;;;;5027963;28;20084;-83
2023/06/11 00:48:55;;;;;;;5.32;1.23;;;;;;;;;;4997188;28;20034;-83
2023/06/11 00:51:25;;;;;;;6.70;1.60;;;;;;;;;;5009060;28;20042;-83
2023/06/11 00:53:59;;;;;;;3.60;1.20;;;;;;;;;;4995177;28;20069;-83
2023/06/11 00:56:28;;;;;;;4.80;1.40;;;;;;;;;;4996978;28;20159;-83
2023/06/11 00:59:01;;;;;;;5.53;1.70;;;;;;;;;;5001544;28;20416;-84
2023/06/11 01:01:31;;;;;;;3.00;1.42;;;;;;;;;;4995090;28;20061;-84
2023/06/11 01:04:01;;;;;;;2.88;1.52;;;;;;;;;;5008806;28;20200;-83
2023/06/11 01:06:33;;;;;;;4.18;1.38;;;;;;;;;;5010842;28;20538;-83
2023/06/11 01:09:03;;;;;;;3.92;1.30;;;;;;;;;;4995966;28;20149;-83
2023/06/11 01:11:35;;;;;;;4.32;1.13;;;;;;;;;;5004120;28;20038;-83
2023/06/11 01:14:05;;;;;;;5.03;1.40;;;;;;;;;;5001766;28;20412;-84
2023/06/11 01:16:44;;;;;;;3.33;1.50;;;;;;;;;;4996480;28;20034;-84
2023/06/11 01:19:33;;;;;;;7.07;1.33;;;;;;;;;;5003484;28;20125;-84
2023/06/11 01:22:09;;;;;;;5.30;1.55;;;;;;;;;;5011809;28;20052;-83
2023/06/11 01:24:59;;;;;;;5.28;1.60;;;;;;;;;;4994231;28;20049;-83
2023/06/11 01:28:03;;;;;;;4.00;1.92;;;;;;;;;;5028034;28;20050;-83
2023/06/11 01:30:37;;;;;;;6.45;1.60;;;;;;;;;;5001146;28;20060;-83
2023/06/11 01:33:08;;;;;;;5.13;1.77;;;;;;;;;;5002776;28;20133;-83
2023/06/11 01:35:48;;;;;;;4.95;1.58;;;;;;;;;;4994009;28;20034;-83
2023/06/11 01:38:21;;;;;;;5.97;1.60;;;;;;;;;;4999044;28;20042;-82
2023/06/11 01:40:49;;;;;;;4.65;1.50;;;;;;;;;;5029832;28;20587;-84
2023/06/11 01:43:23;;;;;;;5.70;1.70;;;;;;;;;;4997020;28;20050;-83
2023/06/11 01:45:51;;;;;;;3.65;1.73;;;;;;;;;;5013858;28;20116;-83
2023/06/11 01:48:24;;;;;;;3.75;1.40;;;;;;;;;;4998629;28;20045;-83
2023/06/11 01:50:51;;;;;;;5.50;1.92;;;;;;;;;;5009045;28;20100;-83
2023/06/11 01:53:19;;;;;;;5.82;1.90;;;;;;;;;;4998703;28;20420;-84
2023/06/11 01:55:47;;;;;;;6.07;1.88;;;;;;;;;;4985265;28;20050;-83
2023/06/11 01:58:18;;;;;;;6.28;1.42;;;;;;;;;;5010895;28;20045;-83
2023/06/11 02:00:47;;;;;;;9.45;1.48;;;;;;;;;;5011681;28;20042;-82
2023/06/11 02:03:15;;;;;;;4.22;1.55;;;;;;;;;;5012587;28;20057;-83
2023/06/11 02:05:43;;;;;;;5.68;1.50;;;;;;;;;;5012372;28;20129;-83
2023/06/11 02:08:11;;;;;;;5.38;1.65;;;;;;;;;;5008146;28;20561;-84
2023/06/11 02:10:44;;;;;;;5.95;1.58;;;;;;;;;;5007604;28;20146;-83
2023/06/11 02:13:11;;;;;;;4.68;1.63;;;;;;;;;;5025799;28;20033;-84
2023/06/11 02:15:43;;;;;;;3.33;1.50;;;;;;;;;;4996020;28;20515;-83
2023/06/11 02:18:11;;;;;;;3.08;1.20;;;;;;;;;;5029705;28;20060;-83
2023/06/11 02:20:40;;;;;;;4.43;1.50;;;;;;;;;;5012176;28;20045;-83
2023/06/11 02:23:07;;;;;;;3.95;1.40;;;;;;;;;;5012568;28;20496;-83
2023/06/11 02:25:39;;;;;;;3.88;1.67;;;;;;;;;;4995107;28;20052;-83
2023/06/11 02:28:07;;;;;;;6.93;1.48;;;;;;;;;;5010664;28;20129;-83
2023/06/11 02:30:35;;;;;;;2.67;1.30;;;;;;;;;;5007994;28;20038;-83
2023/06/11 02:33:05;;;;;;;4.68;1.40;;;;;;;;;;5012154;28;20046;-83
2023/06/11 02:35:35;;;;;;;4.85;1.35;;;;;;;;;;4996410;28;20049;-83
2023/06/11 02:38:27;;;;;;;3.90;1.50;;;;;;;;;;4996544;28;20043;-83
2023/06/11 02:40:55;;;;;;;5.25;1.45;;;;;;;;;;5028352;28;20049;-83
2023/06/11 02:43:24;;;;;;;4.80;1.75;;;;;;;;;;4995708;28;20049;-83
2023/06/11 02:45:51;;;;;;;4.93;1.48;;;;;;;;;;5026017;28;20064;-83
2023/06/11 02:48:19;;;;;;;4.50;1.63;;;;;;;;;;4996135;28;20042;-83
2023/06/11 02:50:47;;;;;;;3.72;1.50;;;;;;;;;;5012398;28;20046;-83
2023/06/11 02:53:15;;;;;;;4.95;1.55;;;;;;;;;;5011175;28;20038;-83
2023/06/11 02:55:43;;;;;;;4.38;1.50;;;;;;;;;;4993697;28;20141;-83
2023/06/11 02:58:11;;;;;;;3.30;1.40;;;;;;;;;;4993308;28;20046;-83
2023/06/11 03:00:40;;;;;;;4.93;1.35;;;;;;;;;;5001239;28;20510;-83
2023/06/11 03:03:07;;;;;;;4.55;1.42;;;;;;;;;;5011764;28;20049;-83
2023/06/11 03:05:40;;;;;;;3.47;1.52;;;;;;;;;;4992723;28;20046;-82
2023/06/11 03:08:07;;;;;;;3.53;1.40;;;;;;;;;;4994709;28;20703;-83
2023/06/11 03:10:37;;;;;;;5.18;1.80;;;;;;;;;;5009368;28;20139;-83
2023/06/11 03:13:09;;;;;;;3.55;1.40;;;;;;;;;;5026640;28;20101;-83
2023/06/11 03:15:37;;;;;;;3.63;1.58;;;;;;;;;;5009381;28;20053;-83
2023/06/11 03:18:05;;;;;;;4.13;1.48;;;;;;;;;;5010322;28;20077;-83
2023/06/11 03:20:35;;;;;;;4.40;1.67;;;;;;;;;;5025357;28;20152;-83
2023/06/11 03:23:10;;;;;;;8.90;1.70;;;;;;;;;;4999704;28;20042;-82
2023/06/11 03:25:40;;;;;;;6.13;1.95;;;;;;;;;;5027758;28;20049;-83
2023/06/11 03:28:13;;;;;;;4.85;1.50;;;;;;;;;;4994230;28;20041;-82
2023/06/11 03:30:45;;;;;;;4.28;1.75;;;;;;;;;;5000063;28;20046;-83
2023/06/11 03:33:13;;;;;;;5.70;1.63;;;;;;;;;;5000344;28;20834;-83
2023/06/11 03:35:42;;;;;;;5.18;1.50;;;;;;;;;;5010377;28;20124;-83
2023/06/11 03:38:21;;;;;;;4.35;1.70;;;;;;;;;;5010880;28;20053;-83
2023/06/11 03:40:49;;;;;;;5.82;2.00;;;;;;;;;;5006493;28;20130;-83
2023/06/11 03:43:18;;;;;;;3.78;1.30;;;;;;;;;;5002533;28;20058;-83
2023/06/11 03:45:47;;;;;;;6.25;1.75;;;;;;;;;;5012652;28;20050;-81
2023/06/11 03:48:15;;;;;;;7.35;1.70;;;;;;;;;;5014669;28;20050;-83
2023/06/11 03:50:43;;;;;;;6.60;2.03;;;;;;;;;;5014243;28;20476;-82
2023/06/11 03:53:11;;;;;;;7.13;1.55;;;;;;;;;;5010496;28;20052;-83
2023/06/11 03:55:39;;;;;;;5.28;1.60;;;;;;;;;;5002164;28;20077;-83
2023/06/11 03:58:07;;;;;;;5.00;1.70;;;;;;;;;;5027988;28;20149;-83
2023/06/11 04:00:35;;;;;;;3.80;1.60;;;;;;;;;;4995995;28;20042;-83
2023/06/11 04:03:03;;;;;;;4.65;1.60;;;;;;;;;;5027162;28;20104;-83
2023/06/11 04:05:37;;;;;;;6.47;1.90;;;;;;;;;;5026965;28;20085;-83
2023/06/11 04:08:07;;;;;;;4.35;1.50;;;;;;;;;;5029220;28;20038;-82
2023/06/11 04:10:35;;;;;;;5.82;1.60;;;;;;;;;;5011890;28;20038;-83
2023/06/11 04:13:09;;;;;;;4.78;1.80;;;;;;;;;;4997575;28;20081;-83
2023/06/11 04:15:37;;;;;;;7.75;2.08;;;;;;;;;;5013851;28;20043;-83
2023/06/11 04:18:10;;;;;;;5.75;1.67;;;;;;;;;;5028251;28;20365;-82
2023/06/11 04:20:43;;;;;;;6.22;1.70;;;;;;;;;;4997441;28;20404;-83
2023/06/11 04:23:11;;;;;;;3.38;1.52;;;;;;;;;;5010592;28;20153;-83
2023/06/11 04:25:39;;;;;;;4.88;1.58;;;;;;;;;;4996292;28;20041;-83
2023/06/11 04:28:31;;;;;;;7.47;1.70;;;;;;;;;;4998922;28;20055;-83
2023/06/11 04:31:04;;;;;;;4.32;1.98;;;;;;;;;;5028290;28;20083;-83
2023/06/11 04:33:36;;;;;;;3.60;1.77;;;;;;;;;;5003256;28;20484;-82
2023/06/11 04:36:07;;;;;;;5.38;2.20;;;;;;;;;;4999011;28;20042;-83
2023/06/11 04:38:37;;;;;;;5.88;1.58;;;;;;;;;;4996902;28;20146;-83
2023/06/11 04:41:06;;;;;;;6.43;2.20;;;;;;;;;;5010358;28;20046;-83
2023/06/11 04:43:36;;;;;;;4.78;1.75;;;;;;;;;;5011304;28;20042;-83
2023/06/11 04:46:06;;;;;;;4.25;1.65;;;;;;;;;;4993758;28;20044;-83
2023/06/11 04:48:37;;;;;;;5.30;1.90;;;;;;;;;;5027720;28;20357;-83
2023/06/11 04:51:06;;;;;;;4.45;1.73;;;;;;;;;;5011185;28;20483;-84
2023/06/11 04:53:38;;;;;;;6.82;1.70;;;;;;;;;;5025873;28;20037;-83
2023/06/11 04:56:13;;;;;;;5.32;2.00;;;;;;;;;;5009059;28;20455;-82
2023/06/11 04:58:41;;;;;;;7.47;1.90;;;;;;;;;;5008518;28;20710;-83
2023/06/11 05:01:12;;;;;;;6.05;1.70;;;;;;;;;;5011239;28;20484;-83
2023/06/11 05:03:40;;;;;;;4.70;1.80;;;;;;;;;;4995679;28;20069;-83
2023/06/11 05:06:13;;;;;;;5.95;2.15;;;;;;;;;;5001320;28;20450;-84
2023/06/11 05:08:45;;;;;;;4.20;2.08;;;;;;;;;;5028005;28;20046;-83
2023/06/11 05:11:13;;;;;;;3.83;1.70;;;;;;;;;;5010511;28;20053;-83
2023/06/11 05:13:42;;;;;;;7.68;2.30;;;;;;;;;;5002864;28;20408;-83
2023/06/11 05:16:09;;;;;;;6.45;1.70;;;;;;;;;;5026538;28;20041;-83
2023/06/11 05:18:37;;;;;;;7.18;1.88;;;;;;;;;;4999241;28;20038;-83
2023/06/11 05:21:11;;;;;;;4.03;1.73;;;;;;;;;;4992796;28;20674;-83
2023/06/11 05:23:43;;;;;;;3.60;1.90;;;;;;;;;;5027199;28;20407;-83
2023/06/11 05:26:13;;;;;;;6.63;2.13;;;;;;;;;;5026265;28;20050;-82
2023/06/11 05:28:46;;;;;;;3.38;1.73;;;;;;;;;;5011636;28;20042;-83
2023/06/11 05:31:21;;;;;;;3.35;1.60;;;;;;;;;;5022555;28;20434;-83
2023/06/11 05:33:50;;;;;;;8.32;2.05;;;;;;;;;;5008194;28;20507;-83
2023/06/11 05:36:17;;;;;;;6.15;2.30;;;;;;;;;;5009427;28;20096;-82
2023/06/11 05:38:46;;;;;;;4.88;2.00;;;;;;;;;;4995381;28;20053;-83
2023/06/11 05:41:13;;;;;;;5.72;2.00;;;;;;;;;;4994784;28;20539;-83
2023/06/11 05:43:41;;;;;;;6.53;2.75;;;;;;;;;;5000534;28;20042;-83
2023/06/11 05:46:09;;;;;;;6.07;1.85;;;;;;;;;;5000968;28;20041;-83
2023/06/11 05:48:37;;;;;;;8.68;2.20;;;;;;;;;;5027639;28;20096;-83
2023/06/11 05:51:29;;;;;;;5.10;2.25;;;;;;;;;;4994970;28;20034;-83
2023/06/11 05:54:01;;;;;;;5.50;2.00;;;;;;;;;;5010491;28;20061;-83
2023/06/11 05:56:35;;;;;;;4.28;2.00;;;;;;;;;;5025810;28;20046;-83
2023/06/11 05:59:04;;;;;;;5.65;2.25;;;;;;;;;;5009709;28;20129;-82
2023/06/11 06:01:33;;;;;;;6.63;2.45;;;;;;;;;;5009773;28;20037;-83
2023/06/11 06:04:01;;;;;;;4.57;2.08;;;;;;;;;;5017734;28;20049;-83
2023/06/11 06:06:30;;;;;;;5.55;2.15;;;;;;;;;;4993661;28;20053;-83
2023/06/11 06:08:59;;;;;;;5.47;2.85;;;;;;;;;;5009947;28;20149;-83
2023/06/11 06:11:31;;;;;;;5.78;2.13;;;;;;;;;;5009780;28;20050;-83
2023/06/11 06:13:59;;;;;;;6.25;1.92;;;;;;;;;;5011167;28;20153;-83
2023/06/11 06:16:27;;;;;;;6.78;2.50;;;;;;;;;;5009072;28;20045;-83
2023/06/11 06:18:59;;;;;;;5.43;1.90;;;;;;;;;;5001562;28;20049;-82
2023/06/11 06:21:32;;;;;;;7.72;1.98;;;;;;;;;;4994940;28;20046;-84
2023/06/11 06:23:59;;;;;;;4.03;1.90;;;;;;;;;;4998137;28;20045;-83
2023/06/11 06:26:56;;;;;;;4.53;1.90;;;;;;;;;;4993687;28;20120;-83
2023/06/11 06:29:32;;;;;;;6.70;2.00;;;;;;;;;;5000921;28;20049;-84
2023/06/11 06:32:01;;;;;;;4.03;1.90;;;;;;;;;;5012688;28;20061;-83
2023/06/11 06:34:29;;;;;;;8.57;2.30;;;;;;;;;;4997769;28;20100;-83
2023/06/11 06:36:57;;;;;;;6.30;1.75;;;;;;;;;;4995226;28;20038;-84
2023/06/11 06:39:25;;;;;;;4.38;1.90;;;;;;;;;;5007787;28;20049;-83
2023/06/11 06:41:53;;;;;;;5.40;1.70;;;;;;;;;;5025755;28;20371;-84
2023/06/11 06:44:31;;;;;;;6.57;2.00;;;;;;;;;;5018505;28;20058;-83
2023/06/11 06:46:59;;;;;;;5.80;2.20;;;;;;;;;;4991305;28;20352;-83
2023/06/11 06:49:27;;;;;;;7.80;2.60;;;;;;;;;;5010729;28;20042;-83
2023/06/11 06:51:55;;;;;;;4.55;2.03;;;;;;;;;;4994234;28;20050;-83
2023/06/11 06:54:29;;;;;;;4.63;2.30;;;;;;;;;;5010351;28;20061;-83
2023/06/11 06:57:07;;;;;;;4.80;1.90;;;;;;;;;;5007826;28;20555;-84
2023/06/11 06:59:40;;;;;;;4.72;1.83;;;;;;;;;;5000706;28;20070;-83
2023/06/11 07:02:10;;;;;;;8.00;2.10;;;;;;;;;;4992034;28;20050;-83
2023/06/11 07:04:41;;;;;;;6.32;2.13;;;;;;;;;;5009334;28;20046;-83
2023/06/11 07:07:17;;;;;;;6.95;1.80;;;;;;;;;;4993734;28;20069;-83
2023/06/11 07:09:45;;;;;;;5.47;2.03;;;;;;;;;;5004822;28;20148;-83
2023/06/11 07:12:32;;;;;;;5.47;2.53;;;;;;;;;;5004128;28;20480;-85
2023/06/11 07:15:19;;;;;;;4.20;1.75;;;;;;;;;;5005805;28;20038;-84
2023/06/11 07:17:53;;;;;;;5.57;2.10;;;;;;;;;;4992918;28;20041;-83
2023/06/11 07:23:21;;;;;;;7.45;1.98;;;;;;;;;;4997233;28;20039;-83
2023/06/11 07:26:00;;;;;;;4.20;1.70;;;;;;;;;;5011761;28;20062;-83
2023/06/11 07:28:29;;;;;;;8.18;2.10;;;;;;;;;;5013210;28;20048;-83
2023/06/11 07:30:57;;;;;;;5.03;1.95;;;;;;;;;;5012232;28;20074;-83
2023/06/11 07:33:25;;;;;;;4.65;1.90;;;;;;;;;;5009828;28;21370;-83
2023/06/11 07:35:56;;;;;;;5.25;2.13;;;;;;;;;;5002977;28;20140;-83
2023/06/11 07:38:23;;;;;;;7.90;2.20;;;;;;;;;;5010208;28;20038;-83
2023/06/11 07:40:55;;;;;;;7.63;2.28;;;;;;;;;;5008858;28;20074;-83
2023/06/11 07:43:25;;;;;;;5.00;2.40;;;;;;;;;;5028570;28;20488;-83
2023/06/11 07:46:05;;;;;;;3.92;2.05;;;;;;;;;;5027184;28;20048;-83
2023/06/11 07:48:41;;;;;;;6.43;2.22;;;;;;;;;;5013297;28;20046;-83
2023/06/11 07:51:17;;;;;;;3.63;1.70;;;;;;;;;;5003953;28;20423;-83
2023/06/11 07:53:56;;;;;;;6.18;2.20;;;;;;;;;;5011728;28;20049;-83
2023/06/11 07:57:04;;;;;;;5.57;2.17;;;;;;;;;;4994907;28;20045;-83
2023/06/11 07:59:36;;;;;;;6.22;1.95;;;;;;;;;;4996481;28;20042;-83
2023/06/11 08:02:06;;;;;;;5.05;1.92;;;;;;;;;;4996183;28;20180;-83
2023/06/11 08:09:10;;;;;;;8.32;2.45;;;;;;;;;;5038269;23;20113;-82
2023/06/11 08:11:41;;;;;;;5.05;1.88;;;;;;;;;;4965005;28;20050;-80
2023/06/11 08:14:09;;;;;;;7.88;2.20;;;;;;;;;;4983166;28;20116;-80
2023/06/11 08:16:37;;;;;;;5.50;2.05;;;;;;;;;;4966525;28;20043;-81
2023/06/11 08:19:05;;;;;;;4.30;2.15;;;;;;;;;;4966546;28;20386;-81
2023/06/11 08:21:33;;;;;;;6.72;2.33;;;;;;;;;;4965891;28;20097;-81
2023/06/11 08:24:44;;;;;;;5.30;2.45;;;;;;;;;;4969863;28;20051;-81
2023/06/11 08:27:12;;;;;;;5.00;2.05;;;;;;;;;;4988285;28;20570;-80
2023/06/11 08:29:45;;;;;;;6.93;2.20;;;;;;;;;;4972040;28;20050;-81
2023/06/11 08:32:13;;;;;;;5.68;2.22;;;;;;;;;;4969089;28;20100;-81
2023/06/11 08:34:41;;;;;;;7.05;2.25;;;;;;;;;;4964730;28;20046;-81
2023/06/11 08:37:10;;;;;;;4.63;2.20;;;;;;;;;;4967817;28;20043;-81
2023/06/11 08:40:01;;;;;;;5.40;2.25;;;;;;;;;;4954362;28;20049;-81
2023/06/11 08:42:29;;;;;;;5.25;2.03;;;;;;;;;;4978275;28;20101;-81
2023/06/11 08:45:07;;;;;;;5.55;2.10;;;;;;;;;;4984385;28;20400;-81
2023/06/11 08:48:36;;;;;;;4.95;2.00;;;;;;;;;;5004189;23;20062;-85
2023/06/11 08:51:05;;;;;;;6.22;2.30;;;;;;;;;;4984285;28;20404;-85
2023/06/11 08:53:56;;;;;;;7.43;2.38;;;;;;;;;;4981314;28;20026;-85
2023/06/11 09:02:18;;;;;;;6.97;2.10;;;;;;;;;;4991734;28;20054;-88
2023/06/11 09:06:49;;;;;;;6.35;2.05;;;;;;;;;;4984038;28;20046;-85
2023/06/11 09:09:34;;;;;;;6.18;1.90;;;;;;;;;;5049708;23;20057;-82
2023/06/11 09:12:07;;;;;;;6.28;2.70;;;;;;;;;;5005974;28;20049;-84
2023/06/11 09:14:35;;;;;;;4.90;2.10;;;;;;;;;;4987432;28;20048;-84
2023/06/11 09:17:06;;;;;;;4.57;2.17;;;;;;;;;;4994332;28;20140;-84
2023/06/11 09:19:37;;;;;;;5.07;2.20;;;;;;;;;;4994978;28;20172;-84
2023/06/11 09:22:11;;;;;;;8.27;2.28;;;;;;;;;;4991674;28;20042;-84
2023/06/11 09:24:50;;;;;;;4.53;2.13;;;;;;;;;;4991763;28;20289;-84
2023/06/11 09:27:20;;;;;;;7.25;2.30;;;;;;;;;;4993689;28;20455;-86
2023/06/11 09:29:53;;;;;;;4.60;2.40;;;;;;;;;;4993108;28;20078;-83
2023/06/11 09:32:25;;;;;;;3.55;2.00;;;;;;;;;;4990210;28;20053;-83
2023/06/11 09:35:16;;;;;;;5.13;2.10;;;;;;;;;;5382969;23;20081;-85
2023/06/11 09:38:26;;;;;;;4.25;2.17;;;;;;;;;;4987405;28;20054;-85
2023/06/11 09:40:57;;;;;;;6.65;2.08;;;;;;;;;;4995317;28;20042;-85
2023/06/11 09:43:30;;;;;;;5.95;2.40;;;;;;;;;;4996252;28;20052;-86
2023/06/11 09:46:01;;;;;;;8.50;2.30;;;;;;;;;;4994684;28;20041;-83
2023/06/11 09:48:30;;;;;;;5.82;1.95;;;;;;;;;;4995281;28;20039;-84
2023/06/11 09:51:00;;;;;;;6.05;2.00;;;;;;;;;;4996416;28;20140;-84
2023/06/11 09:53:29;;;;;;;4.32;2.22;;;;;;;;;;4993355;28;20104;-84
2023/06/11 09:56:11;;;;;;;8.70;2.83;;;;;;;;;;4997125;28;20113;-84
2023/06/11 09:58:58;;;;;;;5.75;1.92;;;;;;;;;;4995281;28;20049;-83
2023/06/11 10:01:47;;;;;;;7.60;2.30;;;;;;;;;;4992237;28;20125;-86
2023/06/11 10:04:27;;;;;;;3.40;2.00;;;;;;;;;;4993856;28;20501;-86
2023/06/11 10:07:15;;;;;;;5.43;2.08;;;;;;;;;;4999590;28;20057;-83
2023/06/11 10:09:59;;;;;;;4.72;2.10;;;;;;;;;;4993520;28;20137;-86
2023/06/11 10:12:40;;;;;;;6.88;2.60;;;;;;;;;;4996719;28;20045;-86
2023/06/11 10:15:26;;;;;;;6.10;2.08;;;;;;;;;;4987576;28;20042;-86
2023/06/11 10:18:14;;;;;;;6.95;2.40;;;;;;;;;;4995313;28;20096;-86
2023/06/11 10:21:04;;;;;;;5.75;2.03;;;;;;;;;;4992447;28;20069;-85
2023/06/11 10:23:51;;;;;;;3.38;1.83;;;;;;;;;;5010549;28;20057;-86
2023/06/11 10:26:34;;;;;;;5.28;2.15;;;;;;;;;;4999742;28;20096;-85
2023/06/11 10:29:45;;;;;;;5.05;2.10;;;;;;;;;;4992719;28;20048;-83
2023/06/11 10:32:57;;;;;;;9.68;3.17;;;;;;;;;;5045115;23;20095;-91
2023/06/11 10:36:27;;;;;;;4.30;2.20;;;;;;;;;;5034094;28;20045;-90
2023/06/11 10:39:59;;;;;;;6.25;2.20;;;;;;;;;;5019826;28;20072;-91
2023/06/11 10:43:00;;;;;;;5.63;1.90;;;;;;;;;;4985962;28;20093;-90
2023/06/11 10:46:25;;;;;;;4.28;1.90;;;;;;;;;;4962136;28;20046;-90
2023/06/11 10:49:53;;;;;;;4.50;2.20;;;;;;;;;;4960881;28;20106;-90
2023/06/11 10:52:56;;;;;;;4.57;2.25;;;;;;;;;;4960500;28;20050;-90
2023/06/11 10:55:51;;;;;;;7.80;2.20;;;;;;;;;;4989923;28;20192;-90
2023/06/11 10:58:48;;;;;;;4.45;2.00;;;;;;;;;;4965431;28;20089;-90
2023/06/11 11:02:13;;;;;;;7.82;2.00;;;;;;;;;;4982168;28;20446;-90
2023/06/11 11:05:43;;;;;;;4.53;2.20;;;;;;;;;;4978440;28;20047;-90
2023/06/11 11:30:42;;;;;;;6.40;2.10;;;;;;;;;;5084499;23;20059;-85
2023/06/11 12:19:59;;;;;;;7.00;1.90;;;;;;;;;;6045002;23;20128;-78
2023/06/11 12:22:41;;;;;;;6.30;2.25;;;;;;;;;;4904453;29;20055;-85
2023/06/11 12:25:30;;;;;;;4.18;1.92;;;;;;;;;;4917051;29;20107;-84
2023/06/11 12:28:11;;;;;;;9.95;1.88;;;;;;;;;;4914997;29;20115;-86
2023/06/11 12:30:57;;;;;;;4.07;2.08;;;;;;;;;;4928564;28;20044;-87
2023/06/11 12:33:40;;;;;;;5.07;2.08;;;;;;;;;;4918803;29;20115;-86
2023/06/11 12:36:21;;;;;;;5.35;2.35;;;;;;;;;;4895117;29;20097;-84
2023/06/11 12:39:08;;;;;;;4.53;2.08;;;;;;;;;;4931554;28;20122;-85
2023/06/11 12:41:36;;;;;;;5.15;2.42;;;;;;;;;;4918452;29;20051;-84
2023/06/11 12:44:10;;;;;;;4.82;2.35;;;;;;;;;;4928447;29;20040;-84
2023/06/11 12:46:37;;;;;;;4.55;2.10;;;;;;;;;;4918703;29;20059;-84
2023/06/11 12:49:05;;;;;;;5.15;2.10;;;;;;;;;;4911780;29;20393;-84
2023/06/11 12:51:33;;;;;;;5.68;2.03;;;;;;;;;;4917508;29;20502;-84
2023/06/11 12:54:02;;;;;;;4.78;2.00;;;;;;;;;;4917730;29;20084;-84
2023/06/11 12:56:34;;;;;;;4.43;2.17;;;;;;;;;;4918125;29;20051;-84
2023/06/11 12:59:02;;;;;;;3.90;2.13;;;;;;;;;;4899082;29;20052;-85
2023/06/11 13:01:35;;;;;;;5.75;2.10;;;;;;;;;;4922544;29;20391;-85
2023/06/11 13:04:17;;;;;;;4.65;2.05;;;;;;;;;;4918606;29;20403;-85
2023/06/11 13:06:59;;;;;;;4.10;2.10;;;;;;;;;;4920389;29;20052;-85
2023/06/11 13:09:31;;;;;;;3.88;2.10;;;;;;;;;;4917087;29;20044;-86
2023/06/11 13:12:13;;;;;;;4.95;2.20;;;;;;;;;;4909362;29;20047;-85
2023/06/11 13:14:55;;;;;;;6.15;1.90;;;;;;;;;;4912552;29;20055;-85
2023/06/11 13:17:38;;;;;;;5.13;1.85;;;;;;;;;;4916293;29;20131;-85
2023/06/11 13:20:12;;;;;;;5.03;2.28;;;;;;;;;;4916688;29;20036;-84
2023/06/11 13:22:41;;;;;;;5.97;1.90;;;;;;;;;;4931189;28;20074;-83
2023/06/11 13:25:09;;;;;;;4.40;2.00;;;;;;;;;;4917267;29;20055;-83
2023/06/11 13:27:37;;;;;;;6.05;2.17;;;;;;;;;;4927420;28;20054;-84
2023/06/11 13:30:09;;;;;;;5.93;2.30;;;;;;;;;;4921710;29;20414;-85
2023/06/11 13:32:40;;;;;;;4.70;1.90;;;;;;;;;;4928245;28;20098;-83
2023/06/11 13:35:36;;;;;;;4.45;1.80;;;;;;;;;;4916068;29;20063;-86
2023/06/11 13:38:13;;;;;;;6.82;2.33;;;;;;;;;;4910801;29;20071;-85
2023/06/11 13:41:23;;;;;;;6.93;2.33;;;;;;;;;;4916198;29;20131;-85
2023/06/11 13:43:55;;;;;;;3.60;1.60;;;;;;;;;;4923217;28;20086;-86
2023/06/11 13:46:27;;;;;;;4.10;2.30;;;;;;;;;;4915414;29;20127;-86
2023/06/11 13:49:02;;;;;;;3.75;1.70;;;;;;;;;;4907223;29;20048;-85
2023/06/11 13:51:44;;;;;;;4.68;2.00;;;;;;;;;;4919274;29;20110;-85
2023/06/11 13:55:47;;;;;;;4.45;2.00;;;;;;;;;;4917642;29;20063;-87
2023/06/11 13:58:33;;;;;;;7.78;1.90;;;;;;;;;;4917098;29;20518;-87
2023/06/11 14:01:20;;;;;;;5.57;2.08;;;;;;;;;;4913104;29;20044;-84
2023/06/11 14:04:02;;;;;;;5.07;1.77;;;;;;;;;;4930168;28;20103;-87
2023/06/11 14:06:43;;;;;;;7.90;1.80;;;;;;;;;;4915675;29;20058;-85
2023/06/11 14:10:48;;;;;;;7.25;2.42;;;;;;;;;;4913921;29;20082;-86
2023/06/11 14:14:36;;;;;;;3.47;1.85;;;;;;;;;;4932937;28;20039;-84
2023/06/11 14:17:11;;;;;;;6.03;1.70;;;;;;;;;;4918792;29;20107;-85
2023/06/11 14:19:57;;;;;;;6.78;2.40;;;;;;;;;;4932648;28;20413;-84
2023/06/11 14:22:49;;;;;;;4.00;2.13;;;;;;;;;;4921316;29;20062;-84
2023/06/11 14:25:32;;;;;;;3.65;2.00;;;;;;;;;;4932195;28;20788;-85
2023/06/11 14:28:18;;;;;;;5.15;2.20;;;;;;;;;;4909345;28;20268;-86
2023/06/11 14:30:49;;;;;;;8.25;1.98;;;;;;;;;;4918093;28;20132;-81
2023/06/11 14:33:18;;;;;;;6.80;1.80;;;;;;;;;;4915921;29;20047;-81
2023/06/11 14:35:50;;;;;;;4.88;1.80;;;;;;;;;;4931685;28;20588;-82
2023/06/11 14:38:18;;;;;;;3.38;1.83;;;;;;;;;;4919366;29;20054;-82
2023/06/11 14:40:46;;;;;;;8.82;2.30;;;;;;;;;;4915824;28;20048;-81
2023/06/11 14:43:14;;;;;;;5.68;1.65;;;;;;;;;;4932117;28;20044;-82
2023/06/11 14:45:41;;;;;;;4.57;1.65;;;;;;;;;;4916745;29;20066;-82
2023/06/11 14:48:43;;;;;;;4.32;1.60;;;;;;;;;;4915607;29;21697;-82
2023/06/11 14:51:16;;;;;;;4.70;1.88;;;;;;;;;;4915820;29;20055;-82
2023/06/11 14:53:45;;;;;;;4.55;1.65;;;;;;;;;;4915918;29;20063;-81
2023/06/11 14:56:13;;;;;;;6.80;1.65;;;;;;;;;;4912773;29;20058;-81
2023/06/11 14:58:41;;;;;;;4.88;1.70;;;;;;;;;;4915227;29;20048;-82
2023/06/11 15:01:10;;;;;;;6.47;1.95;;;;;;;;;;4908428;29;20755;-81
2023/06/11 15:04:04;;;;;;;5.90;1.95;;;;;;;;;;4931207;28;20179;-81
2023/06/11 15:06:36;;;;;;;6.80;1.95;;;;;;;;;;4918180;29;20059;-82
2023/06/11 15:09:04;;;;;;;4.45;1.50;;;;;;;;;;4917843;29;20052;-82
2023/06/11 15:11:31;;;;;;;5.97;1.73;;;;;;;;;;4919148;29;20142;-81
2023/06/11 15:13:59;;;;;;;5.95;1.75;;;;;;;;;;4916157;29;20127;-81
2023/06/11 15:16:27;;;;;;;5.07;1.83;;;;;;;;;;4913485;29;20056;-82
2023/06/11 15:18:55;;;;;;;8.95;2.03;;;;;;;;;;4915718;29;20525;-82
2023/06/11 15:21:23;;;;;;;3.70;1.90;;;;;;;;;;4910680;29;20084;-82
2023/06/11 15:24:05;;;;;;;7.43;1.80;;;;;;;;;;4913669;29;20040;-83
2023/06/11 15:26:44;;;;;;;4.43;2.00;;;;;;;;;;4914111;29;20080;-81
2023/06/11 15:29:12;;;;;;;4.93;1.77;;;;;;;;;;4907511;29;20036;-82
2023/06/11 15:31:40;;;;;;;6.38;1.70;;;;;;;;;;4914605;29;20055;-82
2023/06/11 15:34:10;;;;;;;6.72;1.90;;;;;;;;;;4910851;29;20056;-84
2023/06/11 15:37:03;;;;;;;4.75;1.90;;;;;;;;;;4917486;29;20645;-84
2023/06/11 15:39:31;;;;;;;4.25;1.92;;;;;;;;;;4919331;29;20160;-83
2023/06/11 15:42:00;;;;;;;5.78;1.60;;;;;;;;;;4934461;28;20062;-84
2023/06/11 15:44:33;;;;;;;6.03;2.22;;;;;;;;;;4934054;29;20055;-85
2023/06/11 15:47:11;;;;;;;7.22;2.08;;;;;;;;;;4916735;29;20060;-84
2023/06/11 15:49:45;;;;;;;5.05;2.08;;;;;;;;;;4922019;29;20074;-84
2023/06/11 15:52:13;;;;;;;5.45;2.53;;;;;;;;;;4921329;29;20040;-84
2023/06/11 15:54:41;;;;;;;5.47;2.38;;;;;;;;;;4916513;29;20048;-83
2023/06/11 15:57:35;;;;;;;4.35;1.98;;;;;;;;;;4920427;29;20794;-84
2023/06/11 16:00:08;;;;;;;5.18;1.88;;;;;;;;;;4913190;29;20050;-84
2023/06/11 16:02:42;;;;;;;6.82;1.80;;;;;;;;;;4934734;28;20040;-84
2023/06/11 16:05:15;;;;;;;3.22;1.83;;;;;;;;;;4917692;29;20155;-84
2023/06/11 16:07:52;;;;;;;3.22;1.70;;;;;;;;;;4917989;29;20058;-84
2023/06/11 16:10:19;;;;;;;4.07;1.65;;;;;;;;;;4915313;29;20048;-84
2023/06/11 16:12:47;;;;;;;3.45;1.80;;;;;;;;;;4919631;29;20058;-84
2023/06/11 16:15:15;;;;;;;3.60;1.80;;;;;;;;;;4935513;28;20072;-84
2023/06/11 16:17:43;;;;;;;5.30;2.10;;;;;;;;;;4920711;29;20119;-84
2023/06/11 16:20:14;;;;;;;5.07;2.42;;;;;;;;;;4919458;29;20044;-84
2023/06/11 16:22:41;;;;;;;7.38;1.90;;;;;;;;;;4929598;29;20044;-84
2023/06/11 16:25:10;;;;;;;5.82;2.30;;;;;;;;;;4903193;29;20069;-84
2023/06/11 16:28:01;;;;;;;6.35;2.40;;;;;;;;;;4919190;29;20050;-84
2023/06/11 16:30:33;;;;;;;4.45;1.90;;;;;;;;;;4915876;29;20072;-84
2023/06/11 16:33:01;;;;;;;4.63;2.28;;;;;;;;;;4914906;29;20048;-84
2023/06/11 16:35:30;;;;;;;8.18;2.17;;;;;;;;;;4913062;29;20055;-84
2023/06/11 16:37:57;;;;;;;4.43;2.03;;;;;;;;;;4920392;29;20891;-84
2023/06/11 16:40:31;;;;;;;6.50;2.45;;;;;;;;;;4914128;29;20529;-85
2023/06/11 16:42:59;;;;;;;8.82;2.25;;;;;;;;;;4918032;29;20186;-87
2023/06/11 16:45:30;;;;;;;7.40;2.60;;;;;;;;;;4933907;28;20122;-86
2023/06/11 16:47:57;;;;;;;5.45;2.10;;;;;;;;;;4920208;29;20044;-86
2023/06/11 16:50:31;;;;;;;6.80;1.77;;;;;;;;;;4919267;29;20043;-86
2023/06/11 16:52:59;;;;;;;5.03;1.73;;;;;;;;;;4916575;29;20331;-86
2023/06/11 16:55:31;;;;;;;3.58;1.55;;;;;;;;;;4917628;29;20051;-85
2023/06/11 16:58:03;;;;;;;6.13;1.75;;;;;;;;;;4923000;29;20051;-86
2023/06/11 17:00:55;;;;;;;4.45;2.13;;;;;;;;;;4918056;29;20052;-85
2023/06/11 17:03:23;;;;;;;5.72;2.47;;;;;;;;;;4908448;29;20047;-85